Wichita Mid Continent Airport
KICT : now visible

Airfield :











YOU CAN JOIN US ON...

 
LOGIN :

Register | Disclaimer

   EN    FR    IT 

 









Legend :    VFR   Marginal VFR   IFR   Intensive IFR   Very Intensive IFR
Visi :
Ceiling :
>= 8 km
>= 3000ft
5 to 8 km
1000 to 3000 ft
1500m to 5 km
500 to 1000 ft
800 to 1500m
200 to 500 ft
< 800m
< 200 ft
Symbols :   Thunderstorms  Fog  Heavy snow  Heavy precipitations  Wind > 20 kt






- Airport Elevation : 1333 ft
- IATA code : ICT


KICT - Wichita Mid Continent

CURRENT METAR :
  • 082053Z 17007KT 10SM BKN150 BKN200 10/04 A2969 RMK AO2 SLP054 T01000044 56022

EXPIRED METARs :
  • 081953Z 22006KT 10SM BKN150 BKN200 11/04 A2971 RMK AO2 SLP062 T01060044
  • 081853Z 18008KT 10SM BKN150 BKN200 10/04 A2972 RMK AO2 SLP066 T01000039

TAF KICT
Valid from the 08 at 18:00 until the 09 at 18:00 UTC


081735Z 0818/0918 19007KT P6SM BKN140
FM090700 VRB03KT P6SM BKN060 OVC090
FM091000 VRB05KT P6SM SCT040 OVC080
FM091300 33012KT P6SM BKN080
FM091600 34023KT P6SM BKN200
FM091700 34023G31KT P6SM BKN200



MET'MAP, your aeronautical weather chart ! - Copyright ORBIFLY December 2007 - Disclaimer

ORBIFLY MET'MAP TEAM :

Programming & Development : Alexandra Zaïnal
Concept & original design : Baudouin d'Aumeries
Assistance for programming : Marc-Olivier Méhu
Technical & hardware support : Manuel Goepfert

Contact : metmap@orbifly.com




SOURCES & CREDITS :

   NOAA       Earth
Advisory